createdAt,value
2022-12-09T00:00:07.570Z,100717.00
2022-12-09T00:02:34.708Z,100715.00
2022-12-09T00:05:02.070Z,100708.00
2022-12-09T00:07:29.031Z,100707.00
2022-12-09T00:09:55.785Z,100706.00
2022-12-09T00:12:22.449Z,100710.00
2022-12-09T00:14:49.215Z,100711.00
2022-12-09T00:17:16.093Z,100715.00
2022-12-09T00:19:42.829Z,100708.00
2022-12-09T00:22:09.704Z,100716.00
2022-12-09T00:24:36.380Z,100710.00
2022-12-09T00:27:03.296Z,100704.00
2022-12-09T00:29:30.221Z,100698.00
2022-12-09T00:31:56.975Z,100703.00
2022-12-09T00:34:24.213Z,100710.00
2022-12-09T00:36:51.008Z,100702.00
2022-12-09T00:39:18.019Z,100699.00
2022-12-09T00:41:44.717Z,100700.00
2022-12-09T00:44:11.913Z,100690.00
2022-12-09T00:46:38.568Z,100693.00
2022-12-09T00:49:05.539Z,100702.00
2022-12-09T00:51:32.477Z,100699.00
2022-12-09T00:53:59.244Z,100696.00
2022-12-09T00:56:31.100Z,100696.00
2022-12-09T00:58:59.885Z,100701.00
2022-12-09T01:01:27.690Z,100698.00
2022-12-09T01:03:54.614Z,100703.00
2022-12-09T01:06:24.368Z,100698.00
2022-12-09T01:08:52.146Z,100707.00
2022-12-09T01:11:22.525Z,100699.00
2022-12-09T01:13:50.059Z,100709.00
2022-12-09T01:16:23.073Z,100703.00
2022-12-09T01:18:50.764Z,100701.00
2022-12-09T01:21:18.262Z,100696.00
2022-12-09T01:23:45.363Z,100693.00
2022-12-09T01:26:12.309Z,100694.00
2022-12-09T01:28:40.183Z,100690.00
2022-12-09T01:31:07.075Z,100695.00
2022-12-09T01:33:34.173Z,100687.00
2022-12-09T01:36:03.622Z,100688.00
2022-12-09T01:38:30.644Z,100708.00
2022-12-09T01:40:57.238Z,100711.00
2022-12-09T01:43:23.837Z,100709.00
2022-12-09T01:45:50.904Z,100713.00
2022-12-09T01:48:20.930Z,100709.00
2022-12-09T01:50:59.576Z,100708.00
2022-12-09T01:53:36.146Z,100698.00
2022-12-09T01:56:07.670Z,100700.00
2022-12-09T01:58:35.234Z,100695.00
2022-12-09T02:01:02.138Z,100693.00
2022-12-09T02:03:28.937Z,100698.00
2022-12-09T02:05:56.167Z,100703.00
2022-12-09T02:08:23.119Z,100695.00
2022-12-09T02:11:08.451Z,100698.00
2022-12-09T02:13:52.652Z,100698.00
2022-12-09T02:16:23.635Z,100681.00
2022-12-09T02:19:12.072Z,100684.00
2022-12-09T02:21:53.891Z,100680.00
2022-12-09T02:24:41.350Z,100667.00
2022-12-09T02:27:15.283Z,100676.00
2022-12-09T02:30:00.201Z,100661.00
2022-12-09T02:33:04.552Z,100670.00
2022-12-09T02:36:13.553Z,100658.00
2022-12-09T02:38:42.502Z,100653.00
2022-12-09T02:41:26.323Z,100655.00
2022-12-09T02:44:05.664Z,100650.00
2022-12-09T02:46:36.288Z,100650.00
2022-12-09T02:49:04.230Z,100652.00
2022-12-09T02:51:35.538Z,100650.00
2022-12-09T02:54:09.370Z,100648.00
2022-12-09T02:56:37.314Z,100646.00
2022-12-09T02:59:04.388Z,100642.00
2022-12-09T03:01:52.408Z,100640.00
2022-12-09T03:04:22.768Z,100639.00
2022-12-09T03:06:55.432Z,100638.00
2022-12-09T03:09:35.027Z,100625.00
2022-12-09T03:12:07.223Z,100629.00
2022-12-09T03:14:45.525Z,100624.00
2022-12-09T03:17:20.193Z,100619.00
2022-12-09T03:20:02.916Z,100623.00
2022-12-09T03:22:34.359Z,100626.00
2022-12-09T03:25:10.392Z,100623.00
2022-12-09T03:27:42.914Z,100616.00
2022-12-09T03:30:11.490Z,100614.00
2022-12-09T03:32:41.287Z,100619.00
2022-12-09T03:35:29.853Z,100613.00
2022-12-09T03:37:57.734Z,100617.00
2022-12-09T03:40:28.364Z,100616.00
2022-12-09T03:43:00.775Z,100621.00
2022-12-09T03:45:28.326Z,100618.00
2022-12-09T03:47:56.293Z,100624.00
2022-12-09T03:50:27.236Z,100626.00
2022-12-09T03:53:19.866Z,100620.00
2022-12-09T03:55:54.354Z,100617.00
2022-12-09T03:58:21.409Z,100615.00
2022-12-09T04:00:49.315Z,100629.00
2022-12-09T04:03:18.812Z,100621.00
2022-12-09T04:05:45.696Z,100620.00
2022-12-09T04:08:12.372Z,100621.00
2022-12-09T04:10:39.515Z,100612.00
2022-12-09T04:13:06.152Z,100616.00
2022-12-09T04:15:32.950Z,100620.00
2022-12-09T04:17:59.804Z,100616.00
2022-12-09T04:20:26.846Z,100622.00
2022-12-09T04:22:53.835Z,100623.00
2022-12-09T04:25:20.416Z,100623.00
2022-12-09T04:27:46.954Z,100616.00
2022-12-09T04:30:14.039Z,100626.00
2022-12-09T04:32:41.199Z,100622.00
2022-12-09T04:35:08.355Z,100624.00
2022-12-09T04:37:37.496Z,100622.00
2022-12-09T04:40:08.233Z,100629.00
2022-12-09T04:42:35.471Z,100623.00
2022-12-09T04:45:02.361Z,100622.00
2022-12-09T04:47:29.505Z,100622.00
2022-12-09T04:49:56.413Z,100622.00
2022-12-09T04:52:23.456Z,100617.00
2022-12-09T04:54:51.061Z,100625.00
2022-12-09T04:57:18.822Z,100614.00
2022-12-09T04:59:45.813Z,100606.00
2022-12-09T05:02:12.801Z,100603.00
2022-12-09T05:04:40.228Z,100604.00
2022-12-09T05:07:07.335Z,100608.00
2022-12-09T05:09:34.547Z,100612.00
2022-12-09T05:12:01.345Z,100610.00
2022-12-09T05:14:28.635Z,100616.00
2022-12-09T05:16:55.425Z,100602.00
2022-12-09T05:19:22.679Z,100606.00
2022-12-09T05:21:49.721Z,100603.00
2022-12-09T05:24:16.703Z,100602.00
2022-12-09T05:26:43.487Z,100596.00
2022-12-09T05:29:10.472Z,100591.00
2022-12-09T05:31:37.730Z,100587.00
2022-12-09T05:34:04.844Z,100588.00
2022-12-09T05:36:32.336Z,100581.00
2022-12-09T05:38:59.210Z,100579.00
2022-12-09T05:41:26.200Z,100591.00
2022-12-09T05:43:53.362Z,100586.00
2022-12-09T05:46:21.439Z,100591.00
2022-12-09T05:48:48.492Z,100589.00
2022-12-09T05:51:26.564Z,100594.00
2022-12-09T05:53:54.187Z,100590.00
2022-12-09T05:56:23.406Z,100592.00
2022-12-09T05:58:50.990Z,100594.00
2022-12-09T06:01:18.783Z,100588.00
2022-12-09T06:03:50.116Z,100579.00
2022-12-09T06:06:18.960Z,100577.00
2022-12-09T06:08:46.536Z,100587.00
2022-12-09T06:11:19.775Z,100580.00
2022-12-09T06:13:48.437Z,100588.00
2022-12-09T06:16:20.001Z,100589.00
2022-12-09T06:18:47.872Z,100588.00
2022-12-09T06:21:17.020Z,100604.00
2022-12-09T06:23:44.299Z,100596.00
2022-12-09T06:26:17.171Z,100600.00
2022-12-09T06:28:44.123Z,100603.00
2022-12-09T06:31:10.979Z,100599.00
2022-12-09T06:33:54.167Z,100607.00
2022-12-09T06:36:22.920Z,100612.00
2022-12-09T06:38:50.148Z,100620.00
2022-12-09T06:41:17.164Z,100611.00
2022-12-09T06:43:44.018Z,100605.00
2022-12-09T06:46:16.682Z,100606.00
2022-12-09T06:48:43.968Z,100607.00
2022-12-09T06:51:11.283Z,100602.00
2022-12-09T06:53:38.483Z,100599.00
2022-12-09T06:56:11.737Z,100590.00
2022-12-09T06:58:40.469Z,100587.00
2022-12-09T07:01:13.811Z,100589.00
2022-12-09T07:03:49.272Z,100593.00
2022-12-09T07:06:38.327Z,100602.00
2022-12-09T07:09:14.911Z,100602.00
2022-12-09T07:11:48.228Z,100594.00
2022-12-09T07:14:16.872Z,100597.00
2022-12-09T07:16:44.542Z,100599.00
2022-12-09T07:19:20.628Z,100599.00
2022-12-09T07:21:49.447Z,100596.00
2022-12-09T07:24:18.472Z,100607.00
2022-12-09T07:26:45.816Z,100603.00
2022-12-09T07:29:12.853Z,100603.00
2022-12-09T07:31:39.781Z,100602.00
2022-12-09T07:34:06.820Z,100601.00
2022-12-09T07:36:35.860Z,100600.00
2022-12-09T07:39:10.293Z,100607.00
2022-12-09T07:41:37.427Z,100603.00
2022-12-09T07:44:05.000Z,100605.00
2022-12-09T07:46:32.345Z,100604.00
2022-12-09T07:49:01.213Z,100608.00
2022-12-09T07:51:29.546Z,100618.00
2022-12-09T07:53:57.140Z,100610.00
2022-12-09T07:56:24.883Z,100615.00
2022-12-09T07:58:53.705Z,100611.00
2022-12-09T08:01:26.955Z,100622.00
2022-12-09T08:03:54.767Z,100624.00
2022-12-09T08:06:25.702Z,100625.00
2022-12-09T08:08:53.867Z,100631.00
2022-12-09T08:11:26.748Z,100638.00
2022-12-09T08:13:57.053Z,100634.00
2022-12-09T08:16:24.402Z,100633.00
2022-12-09T08:18:52.753Z,100627.00
2022-12-09T08:21:25.591Z,100622.00
2022-12-09T08:23:53.154Z,100616.00
2022-12-09T08:26:22.373Z,100618.00
2022-12-09T08:28:49.553Z,100621.00
2022-12-09T08:31:19.666Z,100614.00
2022-12-09T08:33:46.782Z,100614.00
2022-12-09T08:36:16.624Z,100616.00
2022-12-09T08:38:44.205Z,100603.00
2022-12-09T08:41:17.555Z,100610.00
2022-12-09T08:43:45.163Z,100616.00
2022-12-09T08:46:13.637Z,100620.00
2022-12-09T08:48:42.482Z,100616.00
2022-12-09T08:51:11.397Z,100621.00
2022-12-09T08:53:42.203Z,100622.00
2022-12-09T08:56:13.786Z,100620.00
2022-12-09T08:58:41.547Z,100621.00
2022-12-09T09:01:15.664Z,100619.00
2022-12-09T09:03:43.129Z,100621.00
2022-12-09T09:06:11.458Z,100624.00
2022-12-09T09:08:39.371Z,100627.00
2022-12-09T09:11:16.052Z,100620.00
2022-12-09T09:13:45.113Z,100630.00
2022-12-09T09:16:15.985Z,100628.00
2022-12-09T09:18:43.982Z,100629.00
2022-12-09T09:21:13.951Z,100622.00
2022-12-09T09:23:41.434Z,100631.00
2022-12-09T09:26:20.087Z,100625.00
2022-12-09T09:28:48.047Z,100624.00
2022-12-09T09:31:17.834Z,100628.00
2022-12-09T09:33:46.150Z,100635.00
2022-12-09T09:36:21.859Z,100632.00
2022-12-09T09:38:50.005Z,100631.00
2022-12-09T09:41:35.576Z,100640.00
2022-12-09T09:44:03.742Z,100645.00
2022-12-09T09:46:39.841Z,100655.00
2022-12-09T09:49:11.413Z,100657.00
2022-12-09T09:51:38.574Z,100654.00
2022-12-09T09:54:09.019Z,100663.00
2022-12-09T09:56:41.138Z,100664.00
2022-12-09T09:59:34.205Z,100657.00
2022-12-09T10:02:16.435Z,100656.00
2022-12-09T10:04:52.830Z,100653.00
2022-12-09T10:07:38.590Z,100657.00
2022-12-09T10:10:20.811Z,100665.00
2022-12-09T10:13:12.316Z,100661.00
2022-12-09T10:16:14.437Z,100657.00
2022-12-09T10:19:05.953Z,100661.00
2022-12-09T10:21:39.631Z,100652.00
2022-12-09T10:24:21.172Z,100648.00
2022-12-09T10:27:12.642Z,100652.00
2022-12-09T10:30:02.751Z,100656.00
2022-12-09T10:32:32.513Z,100650.00
2022-12-09T10:35:00.190Z,100644.00
2022-12-09T10:37:34.017Z,100646.00
2022-12-09T10:40:10.567Z,100646.00
2022-12-09T10:43:04.890Z,100640.00
2022-12-09T10:46:00.110Z,100641.00
2022-12-09T10:48:34.447Z,100630.00
2022-12-09T10:51:05.941Z,100635.00
2022-12-09T10:53:35.270Z,100620.00
2022-12-09T10:56:04.138Z,100627.00
2022-12-09T10:58:32.001Z,100619.00
2022-12-09T11:01:12.604Z,100620.00
2022-12-09T11:03:51.923Z,100622.00
2022-12-09T11:06:31.318Z,100617.00
2022-12-09T11:09:01.036Z,100624.00
2022-12-09T11:11:43.724Z,100613.00
2022-12-09T11:14:30.602Z,100619.00
2022-12-09T11:17:18.707Z,100604.00
2022-12-09T11:19:55.221Z,100611.00
2022-12-09T11:22:43.323Z,100608.00
2022-12-09T11:25:13.480Z,100608.00
2022-12-09T11:27:48.091Z,100613.00
2022-12-09T11:30:36.491Z,100611.00
2022-12-09T11:33:15.386Z,100609.00
2022-12-09T11:35:45.160Z,100605.00
2022-12-09T11:38:30.678Z,100601.00
2022-12-09T11:41:09.453Z,100602.00
2022-12-09T11:43:42.780Z,100600.00
2022-12-09T11:46:12.176Z,100605.00
2022-12-09T11:48:43.841Z,100602.00
2022-12-09T11:51:40.952Z,100600.00
2022-12-09T11:54:18.777Z,100599.00
2022-12-09T11:56:45.620Z,100598.00
2022-12-09T11:59:17.923Z,100590.00
2022-12-09T12:01:52.729Z,100592.00
2022-12-09T12:04:32.658Z,100592.00
2022-12-09T12:07:05.358Z,100586.00
2022-12-09T12:09:34.717Z,100590.00
2022-12-09T12:12:24.417Z,100590.00
2022-12-09T12:14:51.037Z,100590.00
2022-12-09T12:17:24.712Z,100592.00
2022-12-09T12:19:53.396Z,100593.00
2022-12-09T12:22:55.009Z,100599.00
2022-12-09T12:25:51.811Z,100595.00
2022-12-09T12:28:37.504Z,100591.00
2022-12-09T12:31:37.988Z,100587.00
2022-12-09T12:34:25.993Z,100580.00
2022-12-09T12:37:00.611Z,100594.00
2022-12-09T12:39:30.103Z,100578.00
2022-12-09T12:42:28.516Z,100581.00
2022-12-09T12:45:25.857Z,100580.00
2022-12-09T12:48:19.358Z,100583.00
2022-12-09T12:50:51.856Z,100573.00
2022-12-09T12:53:18.482Z,100571.00
2022-12-09T12:56:14.276Z,100572.00
2022-12-09T12:58:54.906Z,100572.00
2022-12-09T13:01:43.322Z,100568.00
2022-12-09T13:04:29.237Z,100565.00
2022-12-09T13:07:20.099Z,100568.00
2022-12-09T13:10:14.465Z,100569.00
2022-12-09T13:12:56.662Z,100563.00
2022-12-09T13:15:32.282Z,100559.00
2022-12-09T13:18:22.195Z,100557.00
2022-12-09T13:20:54.150Z,100558.00
2022-12-09T13:23:54.853Z,100559.00
2022-12-09T13:26:33.473Z,100562.00
2022-12-09T13:29:31.115Z,100566.00
2022-12-09T13:31:57.590Z,100567.00
2022-12-09T13:34:50.011Z,100571.00
2022-12-09T13:37:45.781Z,100577.00
2022-12-09T13:40:21.529Z,100571.00
2022-12-09T13:43:01.381Z,100568.00
2022-12-09T13:45:43.019Z,100561.00
2022-12-09T13:48:16.999Z,100566.00
2022-12-09T13:50:51.621Z,100562.00
2022-12-09T13:53:21.174Z,100560.00
2022-12-09T13:56:05.192Z,100553.00
2022-12-09T13:58:59.471Z,100552.00
2022-12-09T14:01:56.777Z,100563.00
2022-12-09T14:04:27.475Z,100565.00
2022-12-09T14:07:14.854Z,100563.00
2022-12-09T14:09:44.421Z,100563.00
2022-12-09T14:12:27.162Z,100563.00
2022-12-09T14:15:26.229Z,100561.00
2022-12-09T14:18:02.824Z,100570.00
2022-12-09T14:20:39.777Z,100567.00
2022-12-09T14:23:09.819Z,100570.00
2022-12-09T14:25:36.372Z,100573.00
2022-12-09T14:28:12.256Z,100586.00
2022-12-09T14:31:08.164Z,100574.00
2022-12-09T14:33:39.044Z,100577.00
2022-12-09T14:36:14.966Z,100586.00
2022-12-09T14:39:15.697Z,100581.00
2022-12-09T14:41:39.939Z,100579.00
2022-12-09T14:44:34.224Z,100587.00
2022-12-09T14:47:18.619Z,100593.00
2022-12-09T14:49:49.212Z,100600.00
2022-12-09T14:52:29.045Z,100591.00
2022-12-09T14:54:58.647Z,100591.00
2022-12-09T14:57:47.167Z,100595.00
2022-12-09T15:00:34.401Z,100599.00
2022-12-09T15:03:31.359Z,100606.00
2022-12-09T15:06:02.290Z,100611.00
2022-12-09T15:08:37.921Z,100605.00
2022-12-09T15:11:22.304Z,100607.00
2022-12-09T15:13:51.941Z,100617.00
2022-12-09T15:16:21.414Z,100613.00
2022-12-09T15:18:51.259Z,100621.00
2022-12-09T15:21:36.259Z,100615.00
2022-12-09T15:24:03.457Z,100611.00
2022-12-09T15:26:32.863Z,100621.00
2022-12-09T15:29:01.352Z,100617.00
2022-12-09T15:31:30.656Z,100616.00
2022-12-09T15:34:00.154Z,100617.00
2022-12-09T15:36:51.775Z,100615.00
2022-12-09T15:39:25.746Z,100613.00
2022-12-09T15:42:07.386Z,100615.00
2022-12-09T15:44:38.191Z,100608.00
2022-12-09T15:47:10.430Z,100604.00
2022-12-09T15:49:40.165Z,100598.00
2022-12-09T15:52:07.856Z,100605.00
2022-12-09T15:54:39.458Z,100610.00
2022-12-09T15:57:10.867Z,100615.00
2022-12-09T15:59:43.741Z,100613.00
2022-12-09T16:02:15.322Z,100605.00
2022-12-09T16:04:46.826Z,100609.00
2022-12-09T16:07:16.141Z,100612.00
2022-12-09T16:10:09.436Z,100612.00
2022-12-09T16:12:37.300Z,100611.00
2022-12-09T16:15:10.245Z,100615.00
2022-12-09T16:17:51.411Z,100621.00
2022-12-09T16:20:45.700Z,100621.00
2022-12-09T16:23:22.186Z,100625.00
2022-12-09T16:25:50.101Z,100625.00
2022-12-09T16:28:22.781Z,100627.00
2022-12-09T16:30:51.023Z,100626.00
2022-12-09T16:33:24.468Z,100631.00
2022-12-09T16:36:07.035Z,100630.00
2022-12-09T16:38:35.563Z,100628.00
2022-12-09T16:41:05.829Z,100639.00
2022-12-09T16:43:33.894Z,100634.00
2022-12-09T16:46:14.536Z,100634.00
2022-12-09T16:48:42.565Z,100649.00
2022-12-09T16:51:20.102Z,100648.00
2022-12-09T16:53:50.667Z,100648.00
2022-12-09T16:56:23.731Z,100648.00
2022-12-09T16:58:51.206Z,100646.00
2022-12-09T17:01:24.576Z,100643.00
2022-12-09T17:04:14.221Z,100639.00
2022-12-09T17:06:41.132Z,100642.00
2022-12-09T17:09:07.684Z,100637.00
2022-12-09T17:11:34.919Z,100637.00
2022-12-09T17:14:01.543Z,100649.00
2022-12-09T17:16:28.368Z,100649.00
2022-12-09T17:18:55.103Z,100655.00
2022-12-09T17:21:21.743Z,100654.00
2022-12-09T17:23:48.539Z,100655.00
2022-12-09T17:26:18.346Z,100655.00
2022-12-09T17:28:45.743Z,100655.00
2022-12-09T17:31:19.524Z,100661.00
2022-12-09T17:33:47.037Z,100663.00
2022-12-09T17:36:14.875Z,100659.00
2022-12-09T17:38:42.444Z,100665.00
2022-12-09T17:41:11.849Z,100670.00
2022-12-09T17:43:38.796Z,100666.00
2022-12-09T17:46:06.444Z,100667.00
2022-12-09T17:48:35.142Z,100666.00
2022-12-09T17:51:07.118Z,100657.00
2022-12-09T17:53:36.422Z,100666.00
2022-12-09T17:56:11.731Z,100658.00
2022-12-09T17:58:38.891Z,100662.00
2022-12-09T18:01:13.407Z,100667.00
2022-12-09T18:03:55.691Z,100664.00
2022-12-09T18:06:23.839Z,100664.00
2022-12-09T18:08:50.482Z,100667.00
2022-12-09T18:11:17.346Z,100663.00
2022-12-09T18:13:43.941Z,100669.00
2022-12-09T18:16:11.978Z,100670.00
2022-12-09T18:18:39.730Z,100669.00
2022-12-09T18:21:12.082Z,100675.00
2022-12-09T18:23:41.930Z,100674.00
2022-12-09T18:26:10.607Z,100676.00
2022-12-09T18:28:38.229Z,100682.00
2022-12-09T18:31:10.208Z,100679.00
2022-12-09T18:33:38.531Z,100684.00
2022-12-09T18:36:07.560Z,100684.00
2022-12-09T18:38:34.995Z,100693.00
2022-12-09T18:41:02.831Z,100687.00
2022-12-09T18:43:31.649Z,100697.00
2022-12-09T18:46:06.703Z,100690.00
2022-12-09T18:48:33.621Z,100697.00
2022-12-09T18:51:00.270Z,100705.00
2022-12-09T18:53:27.609Z,100702.00
2022-12-09T18:55:54.274Z,100704.00
2022-12-09T18:58:31.504Z,100709.00
2022-12-09T19:01:21.514Z,100709.00
2022-12-09T19:03:48.292Z,100719.00
2022-12-09T19:06:30.280Z,100713.00
2022-12-09T19:08:59.490Z,100726.00
2022-12-09T19:11:29.422Z,100723.00
2022-12-09T19:13:56.856Z,100720.00
2022-12-09T19:16:25.789Z,100725.00
2022-12-09T19:18:56.177Z,100731.00
2022-12-09T19:21:24.454Z,100736.00
2022-12-09T19:23:51.777Z,100726.00
2022-12-09T19:26:29.412Z,100721.00
2022-12-09T19:28:59.708Z,100726.00
2022-12-09T19:31:38.436Z,100731.00
2022-12-09T19:34:06.724Z,100731.00
2022-12-09T19:36:36.046Z,100729.00
2022-12-09T19:39:05.855Z,100729.00
2022-12-09T19:41:32.687Z,100723.00
2022-12-09T19:44:01.008Z,100729.00
2022-12-09T19:46:28.527Z,100732.00
2022-12-09T19:48:56.188Z,100734.00
2022-12-09T19:51:24.085Z,100732.00
2022-12-09T19:53:53.567Z,100734.00
2022-12-09T19:56:20.760Z,100741.00
2022-12-09T19:58:48.534Z,100739.00
2022-12-09T20:01:29.517Z,100745.00
2022-12-09T20:04:19.197Z,100746.00
2022-12-09T20:06:51.942Z,100742.00
2022-12-09T20:09:24.383Z,100744.00
2022-12-09T20:11:53.022Z,100743.00
2022-12-09T20:14:20.641Z,100768.00
2022-12-09T20:16:47.334Z,100765.00
2022-12-09T20:19:14.028Z,100757.00
2022-12-09T20:21:41.124Z,100760.00
2022-12-09T20:24:09.603Z,100772.00
2022-12-09T20:26:37.912Z,100785.00
2022-12-09T20:29:07.993Z,100798.00
2022-12-09T20:31:36.966Z,100804.00
2022-12-09T20:34:06.603Z,100802.00
2022-12-09T20:36:36.069Z,100813.00
2022-12-09T20:39:06.786Z,100819.00
2022-12-09T20:41:33.440Z,100809.00
2022-12-09T20:44:00.589Z,100818.00
2022-12-09T20:46:30.143Z,100822.00
2022-12-09T20:48:57.996Z,100828.00
2022-12-09T20:51:34.815Z,100825.00
2022-12-09T20:54:01.442Z,100822.00
2022-12-09T20:56:29.470Z,100817.00
2022-12-09T20:58:56.906Z,100820.00
2022-12-09T21:01:29.246Z,100819.00
2022-12-09T21:03:57.478Z,100815.00
2022-12-09T21:06:27.090Z,100813.00
2022-12-09T21:08:53.934Z,100818.00
2022-12-09T21:11:23.177Z,100815.00
2022-12-09T21:13:57.819Z,100814.00
2022-12-09T21:16:29.982Z,100813.00
2022-12-09T21:18:59.915Z,100808.00
2022-12-09T21:21:30.269Z,100810.00
2022-12-09T21:23:56.994Z,100798.00
2022-12-09T21:26:25.065Z,100807.00
2022-12-09T21:28:53.243Z,100794.00
2022-12-09T21:31:24.042Z,100797.00
2022-12-09T21:33:52.442Z,100789.00
2022-12-09T21:36:21.931Z,100785.00
2022-12-09T21:38:48.536Z,100792.00
2022-12-09T21:41:18.712Z,100786.00
2022-12-09T21:43:46.413Z,100787.00
2022-12-09T21:46:19.320Z,100789.00
2022-12-09T21:48:52.153Z,100787.00
2022-12-09T21:51:19.527Z,100780.00
2022-12-09T21:53:46.943Z,100785.00
2022-12-09T21:56:16.009Z,100783.00
2022-12-09T21:58:44.342Z,100790.00
2022-12-09T22:01:20.084Z,100797.00
2022-12-09T22:03:47.960Z,100795.00
2022-12-09T22:06:16.048Z,100786.00
2022-12-09T22:08:43.369Z,100789.00
2022-12-09T22:11:14.450Z,100796.00
2022-12-09T22:13:41.504Z,100801.00
2022-12-09T22:16:10.077Z,100799.00
2022-12-09T22:18:36.803Z,100807.00
2022-12-09T22:21:25.649Z,100807.00
2022-12-09T22:23:57.278Z,100809.00
2022-12-09T22:26:24.400Z,100807.00
2022-12-09T22:28:52.134Z,100813.00
2022-12-09T22:31:22.798Z,100814.00
2022-12-09T22:33:52.058Z,100817.00
2022-12-09T22:36:22.642Z,100817.00
2022-12-09T22:38:52.440Z,100809.00
2022-12-09T22:41:25.729Z,100814.00
2022-12-09T22:43:54.451Z,100812.00
2022-12-09T22:46:24.096Z,100810.00
2022-12-09T22:48:51.207Z,100828.00
2022-12-09T22:51:23.444Z,100820.00
2022-12-09T22:53:53.227Z,100821.00
2022-12-09T22:56:20.257Z,100831.00
2022-12-09T22:58:47.638Z,100821.00
2022-12-09T23:01:25.791Z,100818.00
2022-12-09T23:03:53.830Z,100825.00
2022-12-09T23:06:20.456Z,100833.00
2022-12-09T23:08:47.716Z,100837.00
2022-12-09T23:11:17.117Z,100833.00
2022-12-09T23:13:44.493Z,100835.00
2022-12-09T23:16:14.797Z,100839.00
2022-12-09T23:18:41.799Z,100852.00
2022-12-09T23:21:23.498Z,100852.00
2022-12-09T23:23:55.215Z,100849.00
2022-12-09T23:26:26.125Z,100847.00
2022-12-09T23:28:54.656Z,100846.00
2022-12-09T23:31:24.094Z,100858.00
2022-12-09T23:33:51.957Z,100857.00
2022-12-09T23:36:21.687Z,100859.00
2022-12-09T23:38:48.512Z,100862.00
2022-12-09T23:41:17.861Z,100866.00
2022-12-09T23:43:46.112Z,100857.00
2022-12-09T23:46:16.224Z,100863.00
2022-12-09T23:48:44.821Z,100862.00
2022-12-09T23:51:17.803Z,100866.00
2022-12-09T23:53:46.696Z,100867.00
2022-12-09T23:56:15.277Z,100862.00
2022-12-09T23:58:43.000Z,100864.00
